sensor_id;sensor_type;location;lat;lon;timestamp;pressure;altitude;pressure_sealevel;temperature;humidity
69570;BME280;56781;42.292;23.146;2023-11-19T00:02:08;95279.56;;;2.59;68.17
69570;BME280;56781;42.292;23.146;2023-11-19T00:04:37;95387.53;;;3.28;66.44
69570;BME280;56781;42.292;23.146;2023-11-19T00:07:07;95282.94;;;2.63;66.20
69570;BME280;56781;42.292;23.146;2023-11-19T00:09:37;95312.41;;;2.80;65.59
69570;BME280;56781;42.292;23.146;2023-11-19T00:12:07;95293.13;;;2.68;66.68
69570;BME280;56781;42.292;23.146;2023-11-19T00:14:37;95264.06;;;2.51;66.33
69570;BME280;56781;42.292;23.146;2023-11-19T00:17:05;95299.56;;;2.71;64.58
69570;BME280;56781;42.292;23.146;2023-11-19T00:19:34;95387.56;;;3.32;64.97
69570;BME280;56781;42.292;23.146;2023-11-19T00:22:03;95317.28;;;2.81;65.54
69570;BME280;56781;42.292;23.146;2023-11-19T00:24:31;95349.34;;;2.97;66.43
69570;BME280;56781;42.292;23.146;2023-11-19T00:27:00;95358.47;;;3.14;65.73
69570;BME280;56781;42.292;23.146;2023-11-19T00:29:29;95373.94;;;3.19;67.08
69570;BME280;56781;42.292;23.146;2023-11-19T00:31:59;95323.00;;;2.94;64.75
69570;BME280;56781;42.292;23.146;2023-11-19T00:34:27;95408.72;;;3.46;65.62
69570;BME280;56781;42.292;23.146;2023-11-19T00:36:56;95407.22;;;3.56;64.64
69570;BME280;56781;42.292;23.146;2023-11-19T00:39:25;95412.09;;;3.47;67.08
69570;BME280;56781;42.292;23.146;2023-11-19T00:41:53;95373.53;;;3.14;64.78
69570;BME280;56781;42.292;23.146;2023-11-19T00:44:22;95338.03;;;2.90;65.46
69570;BME280;56781;42.292;23.146;2023-11-19T00:46:51;95399.63;;;3.44;64.80
69570;BME280;56781;42.292;23.146;2023-11-19T00:49:21;95367.84;;;3.08;65.29
69570;BME280;56781;42.292;23.146;2023-11-19T00:51:50;95394.59;;;3.07;65.05
69570;BME280;56781;42.292;23.146;2023-11-19T00:54:18;95391.94;;;3.07;66.26
69570;BME280;56781;42.292;23.146;2023-11-19T00:56:47;95317.25;;;2.74;66.19
69570;BME280;56781;42.292;23.146;2023-11-19T00:59:15;95254.59;;;2.32;64.75
69570;BME280;56781;42.292;23.146;2023-11-19T01:01:44;95382.56;;;3.13;66.10
69570;BME280;56781;42.292;23.146;2023-11-19T01:04:15;95420.66;;;3.29;65.96
69570;BME280;56781;42.292;23.146;2023-11-19T01:06:45;95344.38;;;2.78;65.79
69570;BME280;56781;42.292;23.146;2023-11-19T01:09:16;95336.09;;;2.83;65.61
69570;BME280;56781;42.292;23.146;2023-11-19T01:11:44;95293.97;;;2.21;66.62
69570;BME280;56781;42.292;23.146;2023-11-19T01:14:13;95395.75;;;3.13;66.33
69570;BME280;56781;42.292;23.146;2023-11-19T01:16:41;95358.66;;;2.77;65.67
69570;BME280;56781;42.292;23.146;2023-11-19T01:19:10;95375.34;;;3.03;66.48
69570;BME280;56781;42.292;23.146;2023-11-19T01:21:45;95387.34;;;2.93;66.51
69570;BME280;56781;42.292;23.146;2023-11-19T01:24:14;95409.66;;;3.10;66.28
69570;BME280;56781;42.292;23.146;2023-11-19T01:26:43;95405.47;;;3.01;66.24
69570;BME280;56781;42.292;23.146;2023-11-19T01:29:14;95296.72;;;2.35;66.05
69570;BME280;56781;42.292;23.146;2023-11-19T01:31:43;95284.91;;;2.15;66.10
69570;BME280;56781;42.292;23.146;2023-11-19T01:34:13;95384.59;;;2.75;66.67
69570;BME280;56781;42.292;23.146;2023-11-19T01:36:42;95429.63;;;3.14;66.64
69570;BME280;56781;42.292;23.146;2023-11-19T01:39:12;95286.78;;;2.11;66.92
69570;BME280;56781;42.292;23.146;2023-11-19T01:41:43;95416.75;;;3.02;66.88
69570;BME280;56781;42.292;23.146;2023-11-19T01:44:12;95429.59;;;3.11;66.29
69570;BME280;56781;42.292;23.146;2023-11-19T01:46:42;95287.88;;;2.10;66.19
69570;BME280;56781;42.292;23.146;2023-11-19T01:49:14;95443.19;;;3.13;66.55
69570;BME280;56781;42.292;23.146;2023-11-19T01:51:43;95416.38;;;3.04;65.85
69570;BME280;56781;42.292;23.146;2023-11-19T01:54:13;95431.13;;;3.12;65.63
69570;BME280;56781;42.292;23.146;2023-11-19T01:56:42;95331.34;;;2.37;66.51
69570;BME280;56781;42.292;23.146;2023-11-19T01:59:12;95449.25;;;3.24;66.38
69570;BME280;56781;42.292;23.146;2023-11-19T02:01:41;95359.28;;;2.56;65.62
69570;BME280;56781;42.292;23.146;2023-11-19T02:04:11;95289.06;;;2.16;65.80
69570;BME280;56781;42.292;23.146;2023-11-19T02:06:45;95407.34;;;3.01;65.31
69570;BME280;56781;42.292;23.146;2023-11-19T02:09:16;95395.59;;;2.88;66.29
69570;BME280;56781;42.292;23.146;2023-11-19T02:11:46;95426.63;;;3.16;66.18
69570;BME280;56781;42.292;23.146;2023-11-19T02:14:18;95351.47;;;2.70;65.44
69570;BME280;56781;42.292;23.146;2023-11-19T02:16:47;95241.56;;;1.95;66.13
69570;BME280;56781;42.292;23.146;2023-11-19T02:19:19;95333.78;;;2.67;67.16
69570;BME280;56781;42.292;23.146;2023-11-19T02:21:47;95417.25;;;3.22;65.97
69570;BME280;56781;42.292;23.146;2023-11-19T02:24:21;95244.56;;;1.93;66.54
69570;BME280;56781;42.292;23.146;2023-11-19T02:26:58;95341.16;;;2.47;66.37
69570;BME280;56781;42.292;23.146;2023-11-19T02:29:32;95376.22;;;2.59;66.25
69570;BME280;56781;42.292;23.146;2023-11-19T02:32:02;95296.19;;;2.12;66.80
69570;BME280;56781;42.292;23.146;2023-11-19T02:34:31;95291.31;;;2.14;65.93
69570;BME280;56781;42.292;23.146;2023-11-19T02:36:59;95276.44;;;1.88;65.94
69570;BME280;56781;42.292;23.146;2023-11-19T02:39:28;95391.00;;;2.74;65.87
69570;BME280;56781;42.292;23.146;2023-11-19T02:41:57;95304.56;;;2.25;65.77
69570;BME280;56781;42.292;23.146;2023-11-19T02:44:25;95354.38;;;2.55;64.31
69570;BME280;56781;42.292;23.146;2023-11-19T02:46:58;95340.50;;;2.58;65.20
69570;BME280;56781;42.292;23.146;2023-11-19T02:49:27;95326.53;;;2.54;65.15
69570;BME280;56781;42.292;23.146;2023-11-19T02:51:55;95397.94;;;3.00;65.42
69570;BME280;56781;42.292;23.146;2023-11-19T02:54:26;95397.16;;;2.92;65.25
69570;BME280;56781;42.292;23.146;2023-11-19T02:56:55;95297.13;;;2.37;66.13
69570;BME280;56781;42.292;23.146;2023-11-19T02:59:26;95433.75;;;3.08;65.34
69570;BME280;56781;42.292;23.146;2023-11-19T03:02:07;95373.41;;;2.85;65.68
69570;BME280;56781;42.292;23.146;2023-11-19T03:04:38;95271.59;;;1.90;65.78
69570;BME280;56781;42.292;23.146;2023-11-19T03:07:08;95310.09;;;2.12;65.29
69570;BME280;56781;42.292;23.146;2023-11-19T03:09:36;95433.28;;;2.92;66.21
69570;BME280;56781;42.292;23.146;2023-11-19T03:12:08;95409.03;;;2.68;66.67
69570;BME280;56781;42.292;23.146;2023-11-19T03:14:36;95465.97;;;2.87;66.17
69570;BME280;56781;42.292;23.146;2023-11-19T03:17:05;95435.28;;;2.58;65.95
69570;BME280;56781;42.292;23.146;2023-11-19T03:19:35;95266.03;;;1.54;67.35
69570;BME280;56781;42.292;23.146;2023-11-19T03:22:04;95387.06;;;2.46;66.79
69570;BME280;56781;42.292;23.146;2023-11-19T03:24:32;95435.34;;;2.65;67.43
69570;BME280;56781;42.292;23.146;2023-11-19T03:27:01;95409.94;;;2.42;66.71
69570;BME280;56781;42.292;23.146;2023-11-19T03:29:31;95422.50;;;2.60;67.11
69570;BME280;56781;42.292;23.146;2023-11-19T03:31:59;95395.69;;;2.47;67.83
69570;BME280;56781;42.292;23.146;2023-11-19T03:34:28;95445.38;;;3.00;67.68
69570;BME280;56781;42.292;23.146;2023-11-19T03:36:58;95445.31;;;2.93;67.07
69570;BME280;56781;42.292;23.146;2023-11-19T03:39:28;95331.78;;;1.99;67.56
69570;BME280;56781;42.292;23.146;2023-11-19T03:41:57;95288.63;;;1.62;67.28
69570;BME280;56781;42.292;23.146;2023-11-19T03:44:26;95432.28;;;2.59;67.59
69570;BME280;56781;42.292;23.146;2023-11-19T03:46:55;95400.31;;;2.13;67.35
69570;BME280;56781;42.292;23.146;2023-11-19T03:49:23;95455.81;;;2.38;68.10
69570;BME280;56781;42.292;23.146;2023-11-19T03:51:52;95278.53;;;1.27;69.00
69570;BME280;56781;42.292;23.146;2023-11-19T03:54:22;95451.63;;;2.33;67.68
69570;BME280;56781;42.292;23.146;2023-11-19T03:56:51;95473.41;;;2.30;68.35
69570;BME280;56781;42.292;23.146;2023-11-19T03:59:20;95426.34;;;1.84;68.57
69570;BME280;56781;42.292;23.146;2023-11-19T04:01:49;95447.22;;;2.04;68.42
69570;BME280;56781;42.292;23.146;2023-11-19T04:04:18;95427.06;;;1.81;68.52
69570;BME280;56781;42.292;23.146;2023-11-19T04:06:47;95419.81;;;1.71;69.01
69570;BME280;56781;42.292;23.146;2023-11-19T04:09:15;95489.81;;;2.16;69.04
69570;BME280;56781;42.292;23.146;2023-11-19T04:11:45;95399.25;;;1.47;69.85
69570;BME280;56781;42.292;23.146;2023-11-19T04:14:14;95331.22;;;1.04;70.04
69570;BME280;56781;42.292;23.146;2023-11-19T04:16:45;95496.59;;;2.17;70.31
69570;BME280;56781;42.292;23.146;2023-11-19T04:19:14;95404.56;;;1.50;69.81
69570;BME280;56781;42.292;23.146;2023-11-19T04:21:42;95419.66;;;1.90;69.87
69570;BME280;56781;42.292;23.146;2023-11-19T04:24:11;95388.66;;;1.73;68.98
69570;BME280;56781;42.292;23.146;2023-11-19T04:26:41;95447.69;;;2.13;69.54
69570;BME280;56781;42.292;23.146;2023-11-19T04:29:14;95469.00;;;2.41;69.74
69570;BME280;56781;42.292;23.146;2023-11-19T04:31:44;95360.84;;;1.72;69.33
69570;BME280;56781;42.292;23.146;2023-11-19T04:34:13;95385.78;;;1.85;69.90
69570;BME280;56781;42.292;23.146;2023-11-19T04:36:41;95364.06;;;1.96;69.43
69570;BME280;56781;42.292;23.146;2023-11-19T04:39:11;95381.44;;;2.04;68.34
69570;BME280;56781;42.292;23.146;2023-11-19T04:41:48;95502.63;;;2.59;67.32
69570;BME280;56781;42.292;23.146;2023-11-19T04:44:18;95350.66;;;1.67;67.47
69570;BME280;56781;42.292;23.146;2023-11-19T04:46:47;95368.13;;;1.86;67.35
69570;BME280;56781;42.292;23.146;2023-11-19T04:49:16;95380.06;;;1.76;66.31
69570;BME280;56781;42.292;23.146;2023-11-19T04:51:45;95373.69;;;1.77;66.69
69570;BME280;56781;42.292;23.146;2023-11-19T04:54:15;95503.94;;;2.79;66.38
69570;BME280;56781;42.292;23.146;2023-11-19T04:56:45;95522.09;;;2.91;66.82
69570;BME280;56781;42.292;23.146;2023-11-19T04:59:14;95375.38;;;2.00;65.95
69570;BME280;56781;42.292;23.146;2023-11-19T05:01:47;95516.19;;;3.05;66.63
69570;BME280;56781;42.292;23.146;2023-11-19T05:04:18;95508.94;;;2.91;65.49
69570;BME280;56781;42.292;23.146;2023-11-19T05:06:47;95480.19;;;2.76;65.70
69570;BME280;56781;42.292;23.146;2023-11-19T05:09:16;95491.16;;;2.81;67.29
69570;BME280;56781;42.292;23.146;2023-11-19T05:11:45;95489.25;;;2.78;66.82
69570;BME280;56781;42.292;23.146;2023-11-19T05:14:16;95436.53;;;2.30;66.93
69570;BME280;56781;42.292;23.146;2023-11-19T05:16:45;95344.28;;;1.68;65.99
69570;BME280;56781;42.292;23.146;2023-11-19T05:19:16;95550.06;;;3.07;66.39
69570;BME280;56781;42.292;23.146;2023-11-19T05:21:44;95556.06;;;3.04;67.33
69570;BME280;56781;42.292;23.146;2023-11-19T05:24:13;95491.03;;;2.67;68.04
69570;BME280;56781;42.292;23.146;2023-11-19T05:26:42;95547.97;;;3.26;66.27
69570;BME280;56781;42.292;23.146;2023-11-19T05:29:10;95516.19;;;3.05;66.84
69570;BME280;56781;42.292;23.146;2023-11-19T05:31:39;95421.25;;;2.43;67.25
69570;BME280;56781;42.292;23.146;2023-11-19T05:34:11;95548.00;;;3.34;68.15
69570;BME280;56781;42.292;23.146;2023-11-19T05:36:43;95475.22;;;2.67;68.55
69570;BME280;56781;42.292;23.146;2023-11-19T05:39:12;95549.44;;;3.24;69.08
69570;BME280;56781;42.292;23.146;2023-11-19T05:41:41;95504.06;;;2.97;69.03
69570;BME280;56781;42.292;23.146;2023-11-19T05:44:10;95392.22;;;2.32;67.80
69570;BME280;56781;42.292;23.146;2023-11-19T05:46:39;95513.19;;;3.07;65.96
69570;BME280;56781;42.292;23.146;2023-11-19T05:49:11;95448.53;;;2.68;66.61
69570;BME280;56781;42.292;23.146;2023-11-19T05:51:40;95510.13;;;3.05;66.90
69570;BME280;56781;42.292;23.146;2023-11-19T05:57:21;95550.19;;;3.21;65.44
69570;BME280;56781;42.292;23.146;2023-11-19T05:59:53;95520.75;;;3.12;66.54
69570;BME280;56781;42.292;23.146;2023-11-19T06:02:29;95545.41;;;3.41;67.15
69570;BME280;56781;42.292;23.146;2023-11-19T06:05:01;95524.00;;;2.94;67.51
69570;BME280;56781;42.292;23.146;2023-11-19T06:07:32;95455.88;;;2.49;66.42
69570;BME280;56781;42.292;23.146;2023-11-19T06:10:03;95400.75;;;2.22;67.38
69570;BME280;56781;42.292;23.146;2023-11-19T06:12:35;95573.66;;;3.40;65.88
69570;BME280;56781;42.292;23.146;2023-11-19T06:15:06;95524.84;;;3.06;66.40
69570;BME280;56781;42.292;23.146;2023-11-19T06:17:36;95427.06;;;2.22;67.84
69570;BME280;56781;42.292;23.146;2023-11-19T06:20:06;95567.88;;;3.20;69.04
69570;BME280;56781;42.292;23.146;2023-11-19T06:22:36;95574.22;;;3.16;70.35
69570;BME280;56781;42.292;23.146;2023-11-19T06:25:06;95553.13;;;3.16;68.28
69570;BME280;56781;42.292;23.146;2023-11-19T06:27:37;95582.34;;;3.44;68.20
69570;BME280;56781;42.292;23.146;2023-11-19T06:30:07;95516.25;;;3.16;67.64
69570;BME280;56781;42.292;23.146;2023-11-19T06:32:36;95578.94;;;3.44;65.18
69570;BME280;56781;42.292;23.146;2023-11-19T06:35:06;95407.22;;;2.28;66.97
69570;BME280;56781;42.292;23.146;2023-11-19T06:37:35;95583.41;;;3.36;66.64
69570;BME280;56781;42.292;23.146;2023-11-19T06:40:06;95585.94;;;3.22;67.27
69570;BME280;56781;42.292;23.146;2023-11-19T06:42:38;95544.00;;;3.03;66.25
69570;BME280;56781;42.292;23.146;2023-11-19T06:45:07;95553.63;;;2.84;66.06
69570;BME280;56781;42.292;23.146;2023-11-19T06:47:37;95439.13;;;1.86;67.78
69570;BME280;56781;42.292;23.146;2023-11-19T06:50:07;95556.75;;;2.93;66.56
69570;BME280;56781;42.292;23.146;2023-11-19T06:52:36;95591.69;;;2.87;65.92
69570;BME280;56781;42.292;23.146;2023-11-19T06:55:06;95570.81;;;2.67;67.63
69570;BME280;56781;42.292;23.146;2023-11-19T06:57:35;95435.59;;;1.71;67.57
69570;BME280;56781;42.292;23.146;2023-11-19T07:00:08;95568.97;;;2.34;67.73
69570;BME280;56781;42.292;23.146;2023-11-19T07:02:38;95433.50;;;1.50;67.72
69570;BME280;56781;42.292;23.146;2023-11-19T07:05:08;95591.69;;;2.50;68.32
69570;BME280;56781;42.292;23.146;2023-11-19T07:07:40;95612.94;;;2.67;68.43
69570;BME280;56781;42.292;23.146;2023-11-19T07:10:10;95604.59;;;2.62;68.27
69570;BME280;56781;42.292;23.146;2023-11-19T07:12:39;95597.09;;;2.64;68.36
69570;BME280;56781;42.292;23.146;2023-11-19T07:15:11;95598.63;;;2.65;66.88
69570;BME280;56781;42.292;23.146;2023-11-19T07:17:41;95448.25;;;1.62;67.41
69570;BME280;56781;42.292;23.146;2023-11-19T07:20:11;95504.50;;;1.84;68.34
69570;BME280;56781;42.292;23.146;2023-11-19T07:22:43;95622.97;;;2.55;68.02
69570;BME280;56781;42.292;23.146;2023-11-19T07:25:13;95458.16;;;1.42;67.72
69570;BME280;56781;42.292;23.146;2023-11-19T07:27:42;95616.88;;;2.47;67.26
69570;BME280;56781;42.292;23.146;2023-11-19T07:30:14;95463.16;;;1.51;67.50
69570;BME280;56781;42.292;23.146;2023-11-19T07:32:45;95615.31;;;2.42;68.38
69570;BME280;56781;42.292;23.146;2023-11-19T07:35:22;95598.59;;;2.28;69.01
69570;BME280;56781;42.292;23.146;2023-11-19T07:37:52;95524.38;;;1.81;68.51
69570;BME280;56781;42.292;23.146;2023-11-19T07:40:21;95616.78;;;2.40;68.54
69570;BME280;56781;42.292;23.146;2023-11-19T07:42:51;95642.66;;;2.34;68.83
69570;BME280;56781;42.292;23.146;2023-11-19T07:45:22;95645.00;;;2.39;68.15
69570;BME280;56781;42.292;23.146;2023-11-19T07:47:51;95658.53;;;2.41;68.36
69570;BME280;56781;42.292;23.146;2023-11-19T07:50:22;95533.28;;;1.73;68.33
69570;BME280;56781;42.292;23.146;2023-11-19T07:52:52;95485.78;;;1.59;67.84
69570;BME280;56781;42.292;23.146;2023-11-19T07:55:21;95483.72;;;1.75;68.61
69570;BME280;56781;42.292;23.146;2023-11-19T07:57:50;95577.31;;;2.43;66.37
69570;BME280;56781;42.292;23.146;2023-11-19T08:00:19;95458.78;;;1.32;66.38
69570;BME280;56781;42.292;23.146;2023-11-19T08:02:49;95569.47;;;2.13;66.96
69570;BME280;56781;42.292;23.146;2023-11-19T08:05:18;95635.44;;;2.58;66.72
69570;BME280;56781;42.292;23.146;2023-11-19T08:07:47;95515.28;;;1.75;67.46
69570;BME280;56781;42.292;23.146;2023-11-19T08:10:15;95603.56;;;2.36;67.44
69570;BME280;56781;42.292;23.146;2023-11-19T08:12:44;95589.66;;;2.36;68.50
69570;BME280;56781;42.292;23.146;2023-11-19T08:15:13;95554.03;;;2.45;67.14
69570;BME280;56781;42.292;23.146;2023-11-19T08:17:59;95554.03;;;2.45;65.06
69570;BME280;56781;42.292;23.146;2023-11-19T08:20:29;95600.16;;;2.66;65.74
69570;BME280;56781;42.292;23.146;2023-11-19T08:22:58;95583.44;;;2.51;66.81
69570;BME280;56781;42.292;23.146;2023-11-19T08:25:26;95549.91;;;2.11;66.45
69570;BME280;56781;42.292;23.146;2023-11-19T08:27:56;95605.34;;;2.62;67.50
69570;BME280;56781;42.292;23.146;2023-11-19T08:30:24;95618.66;;;2.73;66.06
69570;BME280;56781;42.292;23.146;2023-11-19T08:32:54;95657.22;;;2.92;65.21
69570;BME280;56781;42.292;23.146;2023-11-19T08:35:24;95533.69;;;2.42;65.57
69570;BME280;56781;42.292;23.146;2023-11-19T08:37:53;95618.06;;;2.90;67.15
69570;BME280;56781;42.292;23.146;2023-11-19T08:40:21;95635.13;;;3.04;65.70
69570;BME280;56781;42.292;23.146;2023-11-19T08:42:50;95613.94;;;2.93;63.78
69570;BME280;56781;42.292;23.146;2023-11-19T08:45:19;95656.38;;;3.21;65.02
69570;BME280;56781;42.292;23.146;2023-11-19T08:47:48;95615.63;;;2.71;65.09
69570;BME280;56781;42.292;23.146;2023-11-19T08:50:17;95554.22;;;2.26;65.25
69570;BME280;56781;42.292;23.146;2023-11-19T08:52:47;95598.31;;;2.36;65.85
69570;BME280;56781;42.292;23.146;2023-11-19T08:55:16;95623.91;;;2.73;65.87
69570;BME280;56781;42.292;23.146;2023-11-19T08:57:45;95584.16;;;2.48;65.90
69570;BME280;56781;42.292;23.146;2023-11-19T09:00:14;95644.47;;;2.97;65.47
69570;BME280;56781;42.292;23.146;2023-11-19T09:02:42;95673.88;;;3.44;65.50
69570;BME280;56781;42.292;23.146;2023-11-19T09:05:12;95632.97;;;3.13;64.67
69570;BME280;56781;42.292;23.146;2023-11-19T09:07:41;95669.31;;;3.37;64.46
69570;BME280;56781;42.292;23.146;2023-11-19T09:10:14;95556.63;;;2.79;64.34
69570;BME280;56781;42.292;23.146;2023-11-19T09:12:43;95642.88;;;3.30;63.70
69570;BME280;56781;42.292;23.146;2023-11-19T09:15:11;95628.34;;;3.03;65.40
69570;BME280;56781;42.292;23.146;2023-11-19T09:17:40;95658.31;;;3.32;66.17
69570;BME280;56781;42.292;23.146;2023-11-19T09:20:10;95548.91;;;2.60;64.35
69570;BME280;56781;42.292;23.146;2023-11-19T09:22:42;95620.34;;;3.36;64.29
69570;BME280;56781;42.292;23.146;2023-11-19T09:25:14;95612.31;;;3.22;64.11
69570;BME280;56781;42.292;23.146;2023-11-19T09:27:44;95541.94;;;2.78;63.97
69570;BME280;56781;42.292;23.146;2023-11-19T09:30:13;95556.88;;;3.11;63.38
69570;BME280;56781;42.292;23.146;2023-11-19T09:32:42;95612.03;;;3.34;62.29
69570;BME280;56781;42.292;23.146;2023-11-19T09:35:11;95615.28;;;3.17;64.15
69570;BME280;56781;42.292;23.146;2023-11-19T09:37:43;95609.06;;;2.95;62.98
69570;BME280;56781;42.292;23.146;2023-11-19T09:40:15;95567.91;;;2.80;62.51
69570;BME280;56781;42.292;23.146;2023-11-19T09:42:45;95540.75;;;2.72;62.27
69570;BME280;56781;42.292;23.146;2023-11-19T09:45:15;95629.16;;;3.58;64.02
69570;BME280;56781;42.292;23.146;2023-11-19T09:47:46;95472.06;;;2.95;63.28
69570;BME280;56781;42.292;23.146;2023-11-19T09:50:17;95500.94;;;3.32;61.88
69570;BME280;56781;42.292;23.146;2023-11-19T09:52:47;95511.59;;;3.53;62.55
69570;BME280;56781;42.292;23.146;2023-11-19T09:55:17;95569.53;;;4.12;59.76
69570;BME280;56781;42.292;23.146;2023-11-19T09:57:48;95529.44;;;3.85;58.75
69570;BME280;56781;42.292;23.146;2023-11-19T10:00:20;95562.03;;;4.32;59.12
69570;BME280;56781;42.292;23.146;2023-11-19T10:02:49;95560.16;;;4.29;58.56
69570;BME280;56781;42.292;23.146;2023-11-19T10:05:20;95550.09;;;4.88;59.50
69570;BME280;56781;42.292;23.146;2023-11-19T10:07:50;95486.63;;;4.52;56.74
69570;BME280;56781;42.292;23.146;2023-11-19T10:10:20;95542.53;;;4.86;56.82
69570;BME280;56781;42.292;23.146;2023-11-19T10:12:51;95527.06;;;4.99;55.47
69570;BME280;56781;42.292;23.146;2023-11-19T10:15:23;95536.06;;;4.41;57.23
69570;BME280;56781;42.292;23.146;2023-11-19T10:17:56;95463.41;;;3.60;58.43
69570;BME280;56781;42.292;23.146;2023-11-19T10:20:25;95534.81;;;4.10;60.11
69570;BME280;56781;42.292;23.146;2023-11-19T10:22:55;95506.53;;;4.07;59.77
69570;BME280;56781;42.292;23.146;2023-11-19T10:25:27;95576.13;;;4.72;59.53
69570;BME280;56781;42.292;23.146;2023-11-19T10:27:56;95550.09;;;5.09;57.01
69570;BME280;56781;42.292;23.146;2023-11-19T10:30:26;95557.66;;;5.18;57.09
69570;BME280;56781;42.292;23.146;2023-11-19T10:33:06;95574.63;;;5.35;55.38
69570;BME280;56781;42.292;23.146;2023-11-19T10:35:36;95476.84;;;4.85;54.99
69570;BME280;56781;42.292;23.146;2023-11-19T10:38:14;95494.19;;;5.14;54.98
69570;BME280;56781;42.292;23.146;2023-11-19T10:40:45;95559.88;;;5.48;53.41
69570;BME280;56781;42.292;23.146;2023-11-19T10:43:13;95545.50;;;5.70;53.81
69570;BME280;56781;42.292;23.146;2023-11-19T10:45:42;95476.34;;;5.54;52.62
69570;BME280;56781;42.292;23.146;2023-11-19T10:48:11;95516.31;;;5.95;53.51
69570;BME280;56781;42.292;23.146;2023-11-19T10:50:42;95560.59;;;5.91;54.54
69570;BME280;56781;42.292;23.146;2023-11-19T10:53:12;95491.09;;;5.59;54.20
69570;BME280;56781;42.292;23.146;2023-11-19T10:55:41;95443.50;;;5.44;52.57
69570;BME280;56781;42.292;23.146;2023-11-19T10:58:16;95524.25;;;5.88;55.39
69570;BME280;56781;42.292;23.146;2023-11-19T11:00:47;95521.28;;;5.68;53.61
69570;BME280;56781;42.292;23.146;2023-11-19T11:03:17;95512.56;;;5.75;55.76
69570;BME280;56781;42.292;23.146;2023-11-19T11:05:48;95392.59;;;5.05;52.91
69570;BME280;56781;42.292;23.146;2023-11-19T11:08:17;95536.75;;;5.98;52.02
69570;BME280;56781;42.292;23.146;2023-11-19T11:10:52;95431.13;;;5.06;53.51
69570;BME280;56781;42.292;23.146;2023-11-19T11:13:26;95514.88;;;5.66;54.63
69570;BME280;56781;42.292;23.146;2023-11-19T11:15:57;95436.31;;;5.41;53.65
69570;BME280;56781;42.292;23.146;2023-11-19T11:18:26;95377.88;;;5.00;52.57
69570;BME280;56781;42.292;23.146;2023-11-19T11:20:59;95418.66;;;5.06;54.11
69570;BME280;56781;42.292;23.146;2023-11-19T11:26:50;95421.66;;;5.12;53.79
69570;BME280;56781;42.292;23.146;2023-11-19T11:29:27;95474.03;;;5.70;54.98
69570;BME280;56781;42.292;23.146;2023-11-19T11:32:08;95448.72;;;5.69;53.23
69570;BME280;56781;42.292;23.146;2023-11-19T11:35:00;95444.16;;;5.77;51.87
69570;BME280;56781;42.292;23.146;2023-11-19T11:37:39;95365.69;;;5.42;52.55
69570;BME280;56781;42.292;23.146;2023-11-19T11:40:14;95435.81;;;5.75;53.24
69570;BME280;56781;42.292;23.146;2023-11-19T11:42:43;95457.72;;;5.97;52.32
69570;BME280;56781;42.292;23.146;2023-11-19T11:45:14;95390.56;;;5.48;51.06
69570;BME280;56781;42.292;23.146;2023-11-19T11:48:13;95433.63;;;5.59;51.59
69570;BME280;56781;42.292;23.146;2023-11-19T11:50:54;95346.19;;;4.97;52.65
69570;BME280;56781;42.292;23.146;2023-11-19T11:53:24;95403.00;;;5.58;52.85
69570;BME280;56781;42.292;23.146;2023-11-19T11:55:55;95393.56;;;5.57;52.70
69570;BME280;56781;42.292;23.146;2023-11-19T11:58:32;95396.06;;;5.86;52.52
69570;BME280;56781;42.292;23.146;2023-11-19T12:01:04;95490.84;;;6.30;52.89
69570;BME280;56781;42.292;23.146;2023-11-19T12:03:37;95387.53;;;5.53;52.64
69570;BME280;56781;42.292;23.146;2023-11-19T12:06:07;95446.38;;;5.86;52.24
69570;BME280;56781;42.292;23.146;2023-11-19T12:08:39;95415.31;;;6.00;52.04
69570;BME280;56781;42.292;23.146;2023-11-19T12:11:11;95405.16;;;5.92;53.14
69570;BME280;56781;42.292;23.146;2023-11-19T12:13:46;95379.88;;;5.77;53.16
69570;BME280;56781;42.292;23.146;2023-11-19T12:16:18;95473.31;;;6.47;51.21
69570;BME280;56781;42.292;23.146;2023-11-19T12:18:48;95425.84;;;6.11;51.15
69570;BME280;56781;42.292;23.146;2023-11-19T12:21:28;95368.19;;;5.67;51.38
69570;BME280;56781;42.292;23.146;2023-11-19T12:23:59;95427.38;;;6.09;52.16
69570;BME280;56781;42.292;23.146;2023-11-19T12:26:38;95328.19;;;5.54;52.55
69570;BME280;56781;42.292;23.146;2023-11-19T12:29:07;95367.31;;;5.88;52.25
69570;BME280;56781;42.292;23.146;2023-11-19T12:31:38;95405.47;;;6.01;50.43
69570;BME280;56781;42.292;23.146;2023-11-19T12:34:12;95417.91;;;6.11;51.69
69570;BME280;56781;42.292;23.146;2023-11-19T12:36:41;95424.34;;;6.07;53.50
69570;BME280;56781;42.292;23.146;2023-11-19T12:39:10;95306.69;;;5.45;51.87
69570;BME280;56781;42.292;23.146;2023-11-19T12:41:52;95356.34;;;5.93;50.70
69570;BME280;56781;42.292;23.146;2023-11-19T12:44:22;95408.91;;;6.53;50.80
69570;BME280;56781;42.292;23.146;2023-11-19T12:47:03;95272.16;;;5.70;49.88
69570;BME280;56781;42.292;23.146;2023-11-19T12:49:34;95339.16;;;6.19;49.10
69570;BME280;56781;42.292;23.146;2023-11-19T12:52:11;95406.50;;;6.70;50.62
69570;BME280;56781;42.292;23.146;2023-11-19T12:54:41;95373.59;;;6.64;50.45
69570;BME280;56781;42.292;23.146;2023-11-19T12:57:10;95389.00;;;6.79;48.38
69570;BME280;56781;42.292;23.146;2023-11-19T12:59:39;95352.03;;;6.62;49.95
69570;BME280;56781;42.292;23.146;2023-11-19T13:02:09;95307.88;;;6.48;47.63
69570;BME280;56781;42.292;23.146;2023-11-19T13:04:38;95368.47;;;6.87;48.23
69570;BME280;56781;42.292;23.146;2023-11-19T13:07:08;95358.81;;;6.66;49.28
69570;BME280;56781;42.292;23.146;2023-11-19T13:09:37;95394.38;;;7.10;48.18
69570;BME280;56781;42.292;23.146;2023-11-19T13:12:13;95397.47;;;7.05;50.25
69570;BME280;56781;42.292;23.146;2023-11-19T13:14:43;95398.66;;;6.97;49.75
69570;BME280;56781;42.292;23.146;2023-11-19T13:17:16;95379.91;;;6.80;50.63
69570;BME280;56781;42.292;23.146;2023-11-19T13:19:47;95355.91;;;6.53;50.75
69570;BME280;56781;42.292;23.146;2023-11-19T13:22:18;95342.63;;;6.57;51.05
69570;BME280;56781;42.292;23.146;2023-11-19T13:24:47;95351.41;;;6.50;49.72